createdAt,value
2022-11-11T00:00:40.632Z,53.09
2022-11-11T00:01:40.583Z,53.44
2022-11-11T00:02:40.616Z,52.73
2022-11-11T00:03:40.595Z,53.19
2022-11-11T00:04:40.538Z,53.48
2022-11-11T00:05:40.599Z,52.00
2022-11-11T00:06:40.542Z,53.57
2022-11-11T00:07:41.838Z,53.15
2022-11-11T00:08:40.416Z,52.23
2022-11-11T00:09:40.426Z,51.83
2022-11-11T00:10:40.414Z,57.11
2022-11-11T00:11:40.544Z,56.65
2022-11-11T00:12:40.438Z,53.94
2022-11-11T00:13:40.513Z,51.39
2022-11-11T00:14:40.502Z,52.29
2022-11-11T00:15:40.502Z,53.81
2022-11-11T00:16:40.475Z,56.28
2022-11-11T00:17:40.504Z,54.33
2022-11-11T00:18:40.572Z,54.89
2022-11-11T00:19:40.517Z,55.08
2022-11-11T00:20:44.392Z,54.11
2022-11-11T00:21:41.480Z,54.79
2022-11-11T00:23:01.445Z,53.42
2022-11-11T00:23:40.419Z,53.49
2022-11-11T00:24:40.453Z,52.09
2022-11-11T00:25:40.467Z,52.89
2022-11-11T00:26:40.894Z,52.00
2022-11-11T00:28:13.761Z,54.18
2022-11-11T00:28:40.533Z,51.66
2022-11-11T00:29:40.499Z,53.41
2022-11-11T00:30:40.361Z,51.88
2022-11-11T00:31:40.417Z,52.19
2022-11-11T00:32:40.293Z,51.82
2022-11-11T00:33:40.386Z,54.30
2022-11-11T00:34:40.234Z,54.42
2022-11-11T00:35:40.375Z,54.24
2022-11-11T00:36:44.574Z,54.19
2022-11-11T00:37:40.284Z,54.98
2022-11-11T00:38:40.303Z,53.93
2022-11-11T00:39:40.242Z,51.67
2022-11-11T00:40:40.411Z,55.10
2022-11-11T00:41:40.234Z,56.51
2022-11-11T00:42:40.354Z,55.70
2022-11-11T00:43:40.313Z,57.23
2022-11-11T00:44:40.222Z,53.11
2022-11-11T00:45:40.335Z,52.01
2022-11-11T00:46:40.448Z,52.78
2022-11-11T00:47:40.203Z,55.26
2022-11-11T00:48:40.293Z,55.22
2022-11-11T00:49:40.243Z,56.53
2022-11-11T00:50:40.238Z,54.26
2022-11-11T00:51:40.338Z,52.62
2022-11-11T00:52:40.305Z,52.76
2022-11-11T00:53:40.211Z,52.73
2022-11-11T00:54:40.302Z,50.26
2022-11-11T00:55:40.309Z,53.89
2022-11-11T00:56:40.131Z,56.91
2022-11-11T00:57:40.174Z,55.41
2022-11-11T00:58:40.162Z,54.13
2022-11-11T00:59:40.164Z,48.57
2022-11-11T01:00:40.248Z,48.51
2022-11-11T01:01:40.342Z,49.18
2022-11-11T01:02:40.263Z,53.78
2022-11-11T01:03:40.081Z,51.29
2022-11-11T01:04:40.192Z,52.98
2022-11-11T01:05:40.102Z,54.62
2022-11-11T01:06:40.133Z,51.77
2022-11-11T01:07:40.544Z,53.39
2022-11-11T01:08:40.386Z,51.89
2022-11-11T01:09:41.187Z,50.00
2022-11-11T01:10:40.152Z,51.06
2022-11-11T01:11:40.079Z,52.71
2022-11-11T01:12:40.158Z,51.79
2022-11-11T01:13:40.177Z,54.54
2022-11-11T01:14:39.938Z,55.75
2022-11-11T01:15:40.169Z,54.67
2022-11-11T01:16:40.090Z,53.08
2022-11-11T01:17:40.131Z,54.33
2022-11-11T01:18:40.208Z,53.33
2022-11-11T01:19:40.076Z,54.85
2022-11-11T01:20:40.094Z,52.64
2022-11-11T01:21:40.318Z,53.95
2022-11-11T01:22:39.986Z,54.49
2022-11-11T01:23:40.041Z,52.52
2022-11-11T01:24:40.042Z,52.38
2022-11-11T01:25:39.896Z,53.46
2022-11-11T01:26:40.925Z,55.26
2022-11-11T01:27:40.150Z,52.69
2022-11-11T01:28:40.017Z,50.93
2022-11-11T01:29:39.999Z,49.65
2022-11-11T01:30:39.931Z,49.91
2022-11-11T01:31:39.932Z,51.99
2022-11-11T01:32:40.096Z,52.36
2022-11-11T01:33:39.939Z,49.32
2022-11-11T01:34:40.044Z,50.41
2022-11-11T01:35:39.916Z,53.93
2022-11-11T01:36:39.904Z,53.45
2022-11-11T01:37:40.028Z,54.15
2022-11-11T01:38:40.872Z,53.89
2022-11-11T01:39:39.972Z,51.72
2022-11-11T01:40:39.977Z,52.39
2022-11-11T01:41:39.957Z,52.38
2022-11-11T01:42:39.821Z,51.47
2022-11-11T01:43:39.895Z,52.45
2022-11-11T01:44:39.955Z,49.53
2022-11-11T01:45:40.012Z,49.07
2022-11-11T01:46:39.758Z,54.89
2022-11-11T01:47:55.803Z,53.45
2022-11-11T01:48:41.828Z,52.33
2022-11-11T01:49:39.829Z,52.14
2022-11-11T01:50:39.762Z,52.74
2022-11-11T01:51:40.018Z,50.86
2022-11-11T01:52:40.009Z,54.47
2022-11-11T01:53:39.809Z,56.55
2022-11-11T01:54:39.810Z,54.13
2022-11-11T01:55:39.792Z,55.50
2022-11-11T01:56:39.860Z,53.03
2022-11-11T01:57:39.773Z,54.28
2022-11-11T01:58:39.776Z,51.76
2022-11-11T01:59:39.914Z,49.66
2022-11-11T02:00:39.712Z,53.94
2022-11-11T02:01:39.884Z,50.65
2022-11-11T02:02:39.850Z,48.56
2022-11-11T02:03:39.701Z,50.79
2022-11-11T02:04:39.728Z,51.26
2022-11-11T02:05:40.718Z,51.14
2022-11-11T02:06:39.657Z,49.85
2022-11-11T02:07:39.907Z,54.61
2022-11-11T02:08:39.766Z,53.92
2022-11-11T02:09:39.620Z,51.08
2022-11-11T02:10:39.824Z,54.41
2022-11-11T02:11:39.774Z,51.64
2022-11-11T02:12:39.590Z,55.54
2022-11-11T02:13:39.768Z,53.52
2022-11-11T02:14:39.773Z,53.79
2022-11-11T02:15:39.556Z,51.13
2022-11-11T02:16:39.691Z,54.62
2022-11-11T02:17:39.554Z,54.80
2022-11-11T02:18:39.813Z,54.49
2022-11-11T02:19:39.772Z,53.33
2022-11-11T02:20:39.925Z,50.54
2022-11-11T02:21:39.597Z,53.19
2022-11-11T02:22:39.602Z,54.01
2022-11-11T02:23:39.792Z,51.57
2022-11-11T02:24:39.665Z,50.46
2022-11-11T02:25:39.625Z,54.21
2022-11-11T02:26:39.600Z,50.05
2022-11-11T02:27:39.457Z,52.58
2022-11-11T02:28:39.604Z,53.80
2022-11-11T02:29:39.773Z,51.45
2022-11-11T02:30:39.513Z,50.40
2022-11-11T02:31:39.701Z,52.20
2022-11-11T02:32:39.469Z,52.40
2022-11-11T02:33:39.595Z,50.90
2022-11-11T02:34:39.757Z,54.41
2022-11-11T02:35:39.645Z,51.17
2022-11-11T02:36:39.475Z,53.61
2022-11-11T02:37:39.492Z,51.71
2022-11-11T02:38:39.451Z,55.77
2022-11-11T02:40:02.043Z,54.64
2022-11-11T02:40:41.514Z,55.30
2022-11-11T02:41:39.598Z,50.32
2022-11-11T02:42:39.422Z,48.58
2022-11-11T02:43:41.349Z,48.92
2022-11-11T02:44:39.432Z,50.02
2022-11-11T02:45:39.397Z,51.96
2022-11-11T02:46:39.433Z,53.02
2022-11-11T02:47:39.561Z,52.87
2022-11-11T02:48:39.373Z,53.06
2022-11-11T02:49:39.379Z,49.82
2022-11-11T02:50:39.470Z,50.91
2022-11-11T02:51:39.622Z,50.29
2022-11-11T02:52:39.597Z,54.45
2022-11-11T02:53:39.412Z,50.21
2022-11-11T02:54:39.403Z,48.71
2022-11-11T02:55:39.412Z,50.63
2022-11-11T02:56:39.401Z,47.51
2022-11-11T02:57:39.293Z,49.72
2022-11-11T02:58:39.557Z,50.53
2022-11-11T02:59:39.373Z,51.95
2022-11-11T03:00:39.249Z,53.69
2022-11-11T03:01:39.404Z,49.97
2022-11-11T03:02:39.456Z,50.60
2022-11-11T03:03:39.472Z,49.62
2022-11-11T03:05:12.631Z,51.94
2022-11-11T03:05:39.370Z,48.91
2022-11-11T03:10:22.075Z,50.41
2022-11-11T03:11:21.955Z,53.30
2022-11-11T03:11:48.787Z,54.67
2022-11-11T03:13:20.832Z,52.01
2022-11-11T03:14:22.144Z,51.42
2022-11-11T03:15:21.740Z,52.39
2022-11-11T03:15:48.722Z,58.27
2022-11-11T03:16:48.903Z,50.61
2022-11-11T03:17:48.943Z,50.51
2022-11-11T03:18:48.671Z,49.53
2022-11-11T03:19:48.724Z,54.76
2022-11-11T03:20:48.665Z,55.08
2022-11-11T03:22:52.661Z,54.20
2022-11-11T03:22:55.217Z,52.86
2022-11-11T03:23:50.677Z,54.72
2022-11-11T03:24:48.779Z,55.91
2022-11-11T03:25:48.573Z,55.43
2022-11-11T03:26:48.626Z,53.81
2022-11-11T03:27:48.597Z,55.92
2022-11-11T03:28:48.647Z,53.25
2022-11-11T03:29:48.470Z,53.52
2022-11-11T03:30:48.548Z,52.61
2022-11-11T03:31:48.528Z,51.73
2022-11-11T03:32:48.541Z,54.70
2022-11-11T03:33:48.495Z,53.80
2022-11-11T03:34:48.535Z,51.61
2022-11-11T03:35:48.510Z,52.25
2022-11-11T03:36:48.570Z,55.01
2022-11-11T03:37:48.504Z,54.02
2022-11-11T03:38:48.582Z,54.25
2022-11-11T03:39:48.614Z,57.34
2022-11-11T03:43:48.103Z,53.27
2022-11-11T03:44:48.083Z,52.01
2022-11-11T03:45:48.011Z,52.70
2022-11-11T03:46:48.059Z,55.13
2022-11-11T03:47:48.015Z,54.31
2022-11-11T03:48:48.003Z,53.61
2022-11-11T03:49:47.926Z,53.33
2022-11-11T03:50:47.988Z,55.16
2022-11-11T03:51:47.831Z,53.97
2022-11-11T03:52:47.823Z,55.37
2022-11-11T03:53:47.948Z,54.05
2022-11-11T03:56:55.733Z,53.06
2022-11-11T03:57:55.656Z,52.28
2022-11-11T03:58:55.796Z,51.43
2022-11-11T03:59:55.567Z,53.67
2022-11-11T04:00:55.580Z,53.32
2022-11-11T04:01:55.632Z,51.83
2022-11-11T04:02:55.680Z,55.72
2022-11-11T04:03:55.640Z,54.57
2022-11-11T04:04:55.654Z,54.87
2022-11-11T04:05:56.615Z,57.58
2022-11-11T04:06:55.695Z,55.09
2022-11-11T04:07:55.646Z,53.24
2022-11-11T04:08:55.734Z,53.89
2022-11-11T04:09:55.583Z,53.60
2022-11-11T04:10:55.556Z,54.76
2022-11-11T04:11:55.674Z,55.04
2022-11-11T04:12:55.667Z,52.88
2022-11-11T04:14:14.413Z,53.63
2022-11-11T04:14:55.498Z,56.05
2022-11-11T04:15:55.540Z,56.19
2022-11-11T04:16:55.445Z,56.54
2022-11-11T04:17:57.693Z,56.15
2022-11-11T04:18:56.480Z,54.34
2022-11-11T04:19:55.840Z,56.25
2022-11-11T04:20:55.420Z,54.80
2022-11-11T04:21:55.465Z,56.02
2022-11-11T04:22:55.455Z,58.27
2022-11-11T04:23:55.438Z,54.78
2022-11-11T04:24:55.456Z,55.82
2022-11-11T04:25:55.540Z,56.49
2022-11-11T04:26:55.414Z,55.43
2022-11-11T04:27:55.589Z,56.22
2022-11-11T04:28:55.491Z,56.65
2022-11-11T04:29:55.353Z,55.91
2022-11-11T04:30:55.537Z,55.23
2022-11-11T04:31:55.503Z,59.20
2022-11-11T04:32:55.366Z,56.04
2022-11-11T04:33:55.472Z,57.47
2022-11-11T04:34:55.423Z,56.90
2022-11-11T04:35:55.350Z,58.95
2022-11-11T04:36:55.451Z,54.97
2022-11-11T04:37:55.450Z,58.47
2022-11-11T04:38:55.277Z,57.83
2022-11-11T04:39:55.448Z,57.55
2022-11-11T04:40:55.449Z,57.90
2022-11-11T04:42:07.863Z,56.75
2022-11-11T04:42:57.380Z,56.09
2022-11-11T04:43:55.367Z,57.86
2022-11-11T04:44:55.262Z,56.36
2022-11-11T04:45:55.384Z,56.38
2022-11-11T04:46:55.384Z,58.24
2022-11-11T04:47:55.355Z,57.75
2022-11-11T04:48:55.401Z,57.89
2022-11-11T04:49:55.324Z,55.31
2022-11-11T04:50:55.243Z,57.21
2022-11-11T04:51:55.407Z,57.68
2022-11-11T04:52:55.359Z,58.14
2022-11-11T04:53:55.222Z,57.14
2022-11-11T04:54:55.320Z,56.72
2022-11-11T04:55:55.257Z,56.93
2022-11-11T04:56:55.238Z,56.58
2022-11-11T04:57:55.328Z,55.87
2022-11-11T04:58:55.365Z,57.66
2022-11-11T04:59:55.325Z,57.61
2022-11-11T05:00:55.259Z,55.74
2022-11-11T05:01:55.215Z,56.26
2022-11-11T05:02:55.158Z,55.38
2022-11-11T05:03:55.152Z,55.82
2022-11-11T05:04:55.182Z,59.48
2022-11-11T05:05:55.101Z,60.77
2022-11-11T05:06:59.210Z,60.42
2022-11-11T05:07:56.185Z,58.12
2022-11-11T05:08:55.198Z,59.02
2022-11-11T05:09:55.080Z,58.11
2022-11-11T05:10:55.200Z,60.55
2022-11-11T05:11:55.264Z,58.72
2022-11-11T05:12:55.036Z,57.45
2022-11-11T05:13:55.232Z,56.59
2022-11-11T05:14:55.244Z,59.50
2022-11-11T05:15:55.227Z,57.78
2022-11-11T05:16:55.137Z,57.89
2022-11-11T05:17:55.132Z,59.29
2022-11-11T05:18:55.143Z,57.01
2022-11-11T05:19:55.122Z,57.96
2022-11-11T05:20:55.090Z,57.20
2022-11-11T05:21:55.053Z,58.15
2022-11-11T05:22:54.989Z,58.75
2022-11-11T05:23:55.081Z,59.24
2022-11-11T05:24:55.360Z,59.97
2022-11-11T05:25:55.025Z,60.09
2022-11-11T05:26:55.047Z,59.85
2022-11-11T05:27:54.967Z,61.39
2022-11-11T05:28:54.964Z,60.73
2022-11-11T05:29:55.181Z,59.81
2022-11-11T05:30:55.050Z,58.51
2022-11-11T05:31:55.060Z,60.23
2022-11-11T05:32:55.035Z,61.13
2022-11-11T05:33:54.944Z,62.27
2022-11-11T05:34:55.032Z,59.30
2022-11-11T05:35:55.054Z,59.79
2022-11-11T05:36:54.893Z,60.31
2022-11-11T05:37:54.941Z,61.73
2022-11-11T05:38:56.029Z,62.26
2022-11-11T05:39:54.976Z,60.58
2022-11-11T05:40:54.998Z,62.52
2022-11-11T05:41:54.932Z,62.06
2022-11-11T05:42:55.013Z,61.68
2022-11-11T05:43:54.928Z,61.39
2022-11-11T05:44:54.975Z,60.09
2022-11-11T05:45:54.862Z,60.19
2022-11-11T05:46:54.921Z,61.45
2022-11-11T05:47:54.882Z,60.62
2022-11-11T05:48:54.851Z,61.59
2022-11-11T05:49:54.800Z,61.60
2022-11-11T05:50:54.787Z,60.50
2022-11-11T05:51:54.815Z,60.48
2022-11-11T05:52:54.789Z,62.10
2022-11-11T05:53:54.757Z,61.82
2022-11-11T05:54:54.850Z,60.92
2022-11-11T05:55:54.888Z,62.51
2022-11-11T05:56:54.911Z,61.64
2022-11-11T05:57:54.726Z,61.43
2022-11-11T05:58:54.821Z,59.99
2022-11-11T05:59:54.906Z,58.84
2022-11-11T06:00:54.743Z,59.81
2022-11-11T06:01:54.755Z,62.97
2022-11-11T06:02:55.379Z,63.69
2022-11-11T06:03:55.023Z,60.22
2022-11-11T06:04:55.075Z,59.83
2022-11-11T06:05:55.076Z,61.54
2022-11-11T06:06:55.209Z,60.93
2022-11-11T06:07:55.172Z,59.90
2022-11-11T06:08:55.304Z,60.46
2022-11-11T06:09:55.087Z,60.47
2022-11-11T06:10:55.032Z,61.48
2022-11-11T06:11:54.897Z,60.93
2022-11-11T06:12:54.989Z,59.22
2022-11-11T06:13:55.127Z,60.63
2022-11-11T06:14:54.970Z,61.07
2022-11-11T06:15:55.108Z,61.77
2022-11-11T06:16:55.390Z,60.94
2022-11-11T06:17:55.047Z,61.04
2022-11-11T06:18:55.056Z,60.14
2022-11-11T06:19:55.130Z,61.47
2022-11-11T06:20:56.337Z,60.36
2022-11-11T06:21:54.847Z,60.38
2022-11-11T06:22:55.136Z,59.73
2022-11-11T06:23:54.908Z,61.11
2022-11-11T06:24:54.788Z,60.91
2022-11-11T06:25:54.866Z,60.36
2022-11-11T06:26:54.819Z,61.70
2022-11-11T06:27:54.849Z,62.18
2022-11-11T06:28:54.737Z,62.83
2022-11-11T06:30:13.375Z,64.16
2022-11-11T06:30:56.797Z,63.29
2022-11-11T06:31:54.915Z,62.83
2022-11-11T06:32:54.766Z,65.40
2022-11-11T06:33:54.824Z,62.22
2022-11-11T06:34:54.712Z,62.63
2022-11-11T06:35:54.796Z,62.65
2022-11-11T06:36:54.779Z,64.01
2022-11-11T06:37:54.849Z,63.83
2022-11-11T06:38:54.841Z,63.09
2022-11-11T06:39:54.641Z,64.02
2022-11-11T06:40:57.971Z,63.65
2022-11-11T06:41:54.750Z,61.65
2022-11-11T06:42:54.798Z,62.39
2022-11-11T06:43:54.719Z,63.45
2022-11-11T07:43:49.318Z,57.60
2022-11-11T07:44:49.598Z,58.61
2022-11-11T07:45:50.802Z,57.01
2022-11-11T08:04:19.606Z,57.76
2022-11-11T08:05:19.336Z,58.22
2022-11-11T08:06:19.284Z,57.81
2022-11-11T08:07:22.922Z,56.91
2022-11-11T08:08:20.197Z,55.29
2022-11-11T08:09:19.244Z,61.46
2022-11-11T08:10:19.231Z,62.28
2022-11-11T08:11:19.217Z,61.51
2022-11-11T08:12:22.093Z,59.55
2022-11-11T08:13:20.261Z,56.91
2022-11-11T08:14:20.156Z,57.47
2022-11-11T08:15:19.160Z,55.07
2022-11-11T08:16:19.295Z,56.95
2022-11-11T08:17:19.132Z,60.50
2022-11-11T08:18:19.160Z,58.45
2022-11-11T08:19:19.270Z,57.30
2022-11-11T08:20:19.362Z,57.88
2022-11-11T08:21:19.199Z,58.64
2022-11-11T08:22:19.197Z,58.17
2022-11-11T08:25:21.127Z,57.59
2022-11-11T08:26:20.436Z,57.65
2022-11-11T08:27:19.238Z,56.08
2022-11-11T08:28:19.090Z,59.04
2022-11-11T08:29:19.749Z,58.85
2022-11-11T08:30:19.348Z,60.21
2022-11-11T08:31:19.409Z,65.19
2022-11-11T08:32:19.556Z,67.91
2022-11-11T08:33:44.410Z,64.81
2022-11-11T08:34:21.027Z,62.17
2022-11-11T08:35:18.983Z,55.78
2022-11-11T08:36:21.047Z,57.82
2022-11-11T08:37:19.955Z,57.37
2022-11-11T08:38:18.875Z,55.28
2022-11-11T08:39:19.016Z,57.50
2022-11-11T08:40:19.203Z,55.70
2022-11-11T08:41:18.990Z,55.01
2022-11-11T08:42:19.170Z,56.15
2022-11-11T08:43:19.057Z,53.98
2022-11-11T08:44:18.932Z,55.46
2022-11-11T08:45:19.176Z,57.03
2022-11-11T08:46:20.087Z,60.04
2022-11-11T08:47:18.941Z,56.33
2022-11-11T08:48:18.996Z,55.54
2022-11-11T08:49:19.057Z,54.97
2022-11-11T08:50:18.930Z,56.36
2022-11-11T08:51:19.027Z,58.27
2022-11-11T08:52:18.955Z,55.37
2022-11-11T08:53:18.979Z,54.32
2022-11-11T08:54:18.987Z,55.78
2022-11-11T08:55:18.905Z,54.39
2022-11-11T08:56:18.993Z,57.08
2022-11-11T08:57:18.822Z,55.95
2022-11-11T08:58:20.004Z,55.27
